Time;durP1;ratioP1;P1;durP2;ratioP2;P2;SDS_P1;SDS_P2;PMS_P1;PMS_P2;Temp;Humidity;BMP_temperature;BMP_pressure;BME280_temperature;BME280_humidity;BME280_pressure;Samples;Min_cycle;Max_cycle;Signal;HPM_P1;HPM_P2
2023/07/22 00:00:23;;;;;;;3.47;3.15;;;;;;;20.10;66.80;100734.31;4906395;28;99052;-72
2023/07/22 00:02:50;;;;;;;3.58;2.90;;;;;;;20.13;66.61;100741.28;4904328;28;96713;-72
2023/07/22 00:05:21;;;;;;;3.35;2.97;;;;;;;20.20;65.83;100734.50;4899148;28;96809;-71
2023/07/22 00:07:48;;;;;;;3.95;3.35;;;;;;;20.21;65.87;100733.53;4905930;28;101841;-73
2023/07/22 00:10:19;;;;;;;3.53;3.22;;;;;;;19.96;67.46;100742.53;4902714;28;99767;-72
2023/07/22 00:12:45;;;;;;;4.63;3.08;;;;;;;20.13;65.68;100742.16;4902948;28;96785;-73
2023/07/22 00:15:12;;;;;;;4.47;3.58;;;;;;;20.15;65.86;100737.50;4909704;28;96837;-72
2023/07/22 00:17:39;;;;;;;4.15;3.03;;;;;;;20.05;66.47;100741.88;4908898;28;99457;-72
2023/07/22 00:20:10;;;;;;;3.50;3.20;;;;;;;20.00;66.79;100738.69;4908255;28;98819;-73
2023/07/22 00:22:37;;;;;;;3.72;3.05;;;;;;;20.10;66.38;100734.31;4909616;28;96874;-72
2023/07/22 00:25:04;;;;;;;4.10;3.22;;;;;;;20.09;66.67;100731.75;4909329;28;96760;-73
2023/07/22 00:27:32;;;;;;;3.38;3.08;;;;;;;20.12;65.86;100737.75;4907892;28;99706;-73
2023/07/22 00:29:59;;;;;;;3.28;2.97;;;;;;;20.23;66.10;100736.94;4907713;28;98781;-73
2023/07/22 00:32:25;;;;;;;3.45;3.08;;;;;;;20.00;66.30;100743.19;4907855;28;96832;-73
2023/07/22 00:34:51;;;;;;;3.28;3.00;;;;;;;20.18;66.12;100736.44;4905855;28;96850;-72
2023/07/22 00:37:18;;;;;;;5.43;2.80;;;;;;;20.12;66.45;100740.44;4903959;28;98166;-72
2023/07/22 00:39:44;;;;;;;3.17;2.88;;;;;;;19.98;66.77;100737.94;4905705;28;99305;-72
2023/07/22 00:42:11;;;;;;;6.15;2.92;;;;;;;20.02;66.97;100747.44;4906945;28;96982;-73
2023/07/22 00:44:39;;;;;;;4.22;2.88;;;;;;;19.99;66.54;100752.19;4907433;28;97911;-73
2023/07/22 00:47:05;;;;;;;3.70;3.22;;;;;;;19.86;67.67;100749.56;4905364;28;99145;-64
2023/07/22 00:49:32;;;;;;;4.18;3.38;;;;;;;19.87;67.87;100745.91;4908185;28;99483;-64
2023/07/22 00:52:02;;;;;;;5.60;3.00;;;;;;;19.99;67.21;100739.63;4908105;28;97992;-64
2023/07/22 00:54:28;;;;;;;3.85;3.45;;;;;;;19.93;67.27;100742.78;4911526;28;97157;-65
2023/07/22 00:56:55;;;;;;;7.00;3.58;;;;;;;20.12;67.15;100745.78;4906061;28;98231;-64
2023/07/22 00:59:22;;;;;;;7.25;3.30;;;;;;;20.03;67.65;100749.16;4911286;28;99181;-65
2023/07/22 01:01:50;;;;;;;3.70;3.28;;;;;;;20.05;67.73;100749.91;4912387;28;97074;-66
2023/07/22 01:04:20;;;;;;;4.38;3.15;;;;;;;20.02;67.08;100744.75;4912034;28;96811;-65
2023/07/22 01:06:48;;;;;;;5.78;3.60;;;;;;;19.94;67.60;100759.72;4911099;28;99455;-65
2023/07/22 01:09:14;;;;;;;3.58;3.20;;;;;;;20.14;67.03;100756.41;4912580;28;101659;-64
2023/07/22 01:11:41;;;;;;;3.83;3.40;;;;;;;20.14;66.71;100759.09;4910344;28;96894;-65
2023/07/22 01:14:07;;;;;;;5.13;3.70;;;;;;;20.03;67.33;100748.28;4912124;28;96996;-63
2023/07/22 01:16:34;;;;;;;5.88;3.00;;;;;;;19.42;69.28;100745.59;4907845;28;98990;-64
2023/07/22 01:19:04;;;;;;;3.85;3.22;;;;;;;19.74;68.61;100745.13;4910435;28;98813;-64
2023/07/22 01:21:33;;;;;;;5.75;3.47;;;;;;;19.75;69.20;100750.38;4908942;28;96855;-63
2023/07/22 01:24:01;;;;;;;3.95;3.55;;;;;;;19.84;68.13;100746.13;4911492;28;96821;-64
2023/07/22 01:26:28;;;;;;;8.90;3.60;;;;;;;19.92;68.06;100754.47;4911449;28;99588;-64
2023/07/22 01:29:03;;;;;;;4.43;3.47;;;;;;;20.04;68.02;100750.88;4908141;28;98833;-64
2023/07/22 01:31:29;;;;;;;6.30;3.80;;;;;;;19.98;68.00;100751.34;4904815;28;96920;-65
2023/07/22 01:33:56;;;;;;;4.57;3.53;;;;;;;19.91;68.43;100744.72;4904294;28;96876;-64
2023/07/22 01:36:22;;;;;;;10.32;3.85;;;;;;;20.07;67.78;100753.34;4909669;28;99529;-63
2023/07/22 01:38:49;;;;;;;5.90;3.72;;;;;;;20.07;67.92;100750.66;4911348;28;99498;-64
2023/07/22 01:41:16;;;;;;;10.48;3.70;;;;;;;19.96;68.30;100741.69;4910159;28;98003;-64
2023/07/22 01:43:43;;;;;;;6.75;4.10;;;;;;;20.01;68.36;100748.44;4909838;28;97282;-64
2023/07/22 01:46:10;;;;;;;6.25;3.78;;;;;;;20.05;67.35;100755.28;4911386;28;99358;-64
2023/07/22 01:48:36;;;;;;;5.80;3.63;;;;;;;20.01;67.62;100742.22;4911764;28;98834;-73
2023/07/22 01:51:03;;;;;;;4.82;3.42;;;;;;;20.17;67.55;100735.56;4909110;28;96825;-73
2023/07/22 01:53:29;;;;;;;4.00;3.60;;;;;;;20.04;67.14;100745.50;4910817;28;96770;-72
2023/07/22 01:55:56;;;;;;;6.40;3.58;;;;;;;19.89;67.41;100752.00;4911397;28;99573;-73
2023/07/22 01:58:24;;;;;;;6.88;3.45;;;;;;;19.80;68.08;100758.94;4910011;28;98899;-72
2023/07/22 02:00:51;;;;;;;6.50;4.18;;;;;;;19.65;69.12;100776.13;4909367;28;96816;-72
2023/07/22 02:03:18;;;;;;;8.40;3.80;;;;;;;19.48;68.87;100766.63;4909160;28;97020;-72
2023/07/22 02:05:44;;;;;;;5.72;3.70;;;;;;;19.19;70.72;100780.34;4908383;28;99487;-72
2023/07/22 02:08:11;;;;;;;4.15;3.75;;;;;;;19.36;69.83;100774.66;4907385;28;98867;-71
2023/07/22 02:10:37;;;;;;;4.50;3.72;;;;;;;19.42;69.64;100772.41;4905846;28;96918;-73
2023/07/22 02:13:04;;;;;;;4.22;3.63;;;;;;;19.35;69.68;100771.13;4906337;28;96900;-72
2023/07/22 02:15:33;;;;;;;4.60;3.22;;;;;;;19.22;70.41;100770.28;4904744;28;99675;-72
2023/07/22 02:18:00;;;;;;;16.33;5.63;;;;;;;19.07;70.57;100774.91;4911019;28;99282;-72
2023/07/22 02:20:28;;;;;;;8.38;3.90;;;;;;;19.09;70.23;100774.78;4903872;28;97198;-73
2023/07/22 02:22:55;;;;;;;4.32;3.22;;;;;;;18.87;70.83;100780.78;4910927;28;96944;-72
2023/07/22 02:25:22;;;;;;;6.15;3.53;;;;;;;18.69;71.09;100790.94;4910861;28;101480;-72
2023/07/22 02:27:48;;;;;;;3.92;3.40;;;;;;;18.63;71.69;100794.03;4910216;28;98751;-72
2023/07/22 02:30:15;;;;;;;4.63;3.75;;;;;;;18.69;71.94;100787.41;4910331;28;96776;-72
2023/07/22 02:32:42;;;;;;;4.18;3.78;;;;;;;18.90;70.70;100795.78;4909875;28;96743;-73
2023/07/22 02:35:10;;;;;;;4.13;3.00;;;;;;;18.91;70.77;100803.69;4908337;28;98993;-72
2023/07/22 02:37:38;;;;;;;4.68;3.28;;;;;;;19.13;69.84;100803.06;4910628;28;99529;-72
2023/07/22 02:40:07;;;;;;;3.83;3.45;;;;;;;19.00;70.04;100807.56;4907283;28;97374;-72
2023/07/22 02:42:35;;;;;;;4.47;3.50;;;;;;;18.94;69.92;100805.31;4911620;28;97138;-72
2023/07/22 02:45:01;;;;;;;5.40;3.53;;;;;;;18.98;69.74;100798.78;4904919;28;99141;-72
2023/07/22 02:47:28;;;;;;;5.25;3.30;;;;;;;18.89;70.23;100808.31;4909559;28;98760;-73
2023/07/22 02:49:56;;;;;;;3.75;3.30;;;;;;;19.09;69.48;100806.94;4908867;28;97200;-74
2023/07/22 02:52:22;;;;;;;5.25;3.40;;;;;;;18.86;69.55;100811.19;4911025;28;96804;-73
2023/07/22 02:55:07;;;;;;;4.53;3.15;;;;;;;18.59;70.56;100821.97;4908517;28;103014;-72
2023/07/22 02:57:34;;;;;;;4.60;3.50;;;;;;;18.28;72.27;100820.44;4908853;28;100520;-72
2023/07/22 03:00:06;;;;;;;4.72;3.13;;;;;;;18.62;70.86;100816.41;4904855;28;98307;-72
2023/07/22 03:02:33;;;;;;;4.03;2.72;;;;;;;18.50;71.09;100819.03;4903945;28;96850;-73
2023/07/22 03:05:02;;;;;;;3.92;2.70;;;;;;;18.45;71.24;100830.00;4909648;28;99000;-73
2023/07/22 03:07:28;;;;;;;5.22;2.90;;;;;;;18.59;70.77;100829.97;4910456;28;101543;-72
2023/07/22 03:09:55;;;;;;;4.57;2.88;;;;;;;18.38;71.14;100822.53;4909632;28;97118;-73
2023/07/22 03:12:22;;;;;;;6.13;3.83;;;;;;;18.32;71.29;100840.69;4909994;28;96907;-73
2023/07/22 03:14:48;;;;;;;5.68;3.45;;;;;;;18.43;71.37;100829.28;4908351;28;98936;-72
2023/07/22 03:17:16;;;;;;;5.40;2.80;;;;;;;18.38;71.37;100831.38;4910198;28;98879;-72
2023/07/22 03:19:42;;;;;;;5.50;3.08;;;;;;;18.59;70.65;100834.47;4906342;28;96864;-73
2023/07/22 03:22:10;;;;;;;4.78;3.33;;;;;;;18.66;70.09;100833.97;4909093;28;96880;-73
2023/07/22 03:24:37;;;;;;;4.60;3.22;;;;;;;18.29;71.21;100842.72;4906894;28;98946;-73
2023/07/22 03:27:04;;;;;;;5.43;3.13;;;;;;;18.55;70.71;100832.94;4907682;28;100407;-73
2023/07/22 03:29:30;;;;;;;6.63;3.17;;;;;;;18.63;70.40;100841.34;4906814;28;96789;-74
2023/07/22 03:31:57;;;;;;;5.78;2.95;;;;;;;18.50;71.13;100846.66;4905860;28;96851;-73
2023/07/22 03:34:23;;;;;;;5.20;3.10;;;;;;;18.52;71.18;100849.19;4910313;28;99543;-73
2023/07/22 03:36:50;;;;;;;6.55;3.40;;;;;;;18.62;70.28;100850.34;4902846;28;99203;-73
2023/07/22 03:39:18;;;;;;;3.55;2.95;;;;;;;18.71;70.44;100852.38;4904746;28;97233;-73
2023/07/22 03:41:44;;;;;;;7.53;3.30;;;;;;;18.56;70.70;100864.13;4901697;28;96953;-72
2023/07/22 03:44:11;;;;;;;9.10;2.97;;;;;;;18.78;70.02;100859.03;4910298;28;99036;-73
2023/07/22 03:46:37;;;;;;;7.68;2.97;;;;;;;18.85;69.60;100862.16;4909901;28;97600;-72
2023/07/22 03:49:03;;;;;;;9.10;3.15;;;;;;;18.93;69.08;100868.72;4909396;28;96867;-72
2023/07/22 03:51:30;;;;;;;4.45;3.20;;;;;;;18.91;69.32;100869.78;4908512;28;97696;-73
2023/07/22 03:53:56;;;;;;;6.00;3.30;;;;;;;18.94;68.85;100865.09;4908419;28;99058;-72
2023/07/22 03:56:24;;;;;;;4.63;3.05;;;;;;;18.76;69.33;100870.84;4908798;28;99553;-72
2023/07/22 03:58:51;;;;;;;3.63;3.03;;;;;;;18.74;69.44;100870.06;4908703;28;97049;-72
2023/07/22 04:01:17;;;;;;;6.07;3.20;;;;;;;18.76;69.25;100870.84;4908814;28;97094;-72
2023/07/22 04:03:43;;;;;;;5.55;3.17;;;;;;;18.75;69.32;100871.78;4907080;28;97823;-72
2023/07/22 04:06:10;;;;;;;4.65;2.70;;;;;;;18.58;69.71;100871.09;4907371;28;98743;-72
2023/07/22 04:08:36;;;;;;;6.32;2.95;;;;;;;18.58;68.60;100859.53;4905517;28;96911;-72
2023/07/22 04:11:03;;;;;;;6.85;3.20;;;;;;;18.72;68.83;100862.13;4905757;28;97002;-72
2023/07/22 04:13:31;;;;;;;6.13;3.53;;;;;;;18.77;68.99;100872.56;4905251;28;98961;-73
2023/07/22 04:15:58;;;;;;;6.82;3.20;;;;;;;18.94;67.67;100866.91;4904127;28;98927;-71
2023/07/22 04:18:24;;;;;;;6.28;2.67;;;;;;;18.87;67.11;100873.63;4908745;28;96811;-72
2023/07/22 04:20:56;;;;;;;3.22;2.45;;;;;;;18.97;67.27;100878.25;4902254;28;97489;-72
2023/07/22 04:23:23;;;;;;;7.72;3.38;;;;;;;18.94;67.10;100874.94;4907042;28;102009;-72
2023/07/22 04:25:49;;;;;;;5.97;2.72;;;;;;;18.99;66.52;100875.47;4903460;28;99204;-73
2023/07/22 04:28:16;;;;;;;4.35;2.90;;;;;;;18.99;66.62;100880.81;4908826;28;96842;-71
2023/07/22 04:30:44;;;;;;;4.10;2.80;;;;;;;19.08;65.94;100885.56;4909873;28;97126;-72
2023/07/22 04:33:10;;;;;;;5.63;2.88;;;;;;;19.07;66.31;100882.03;4903563;28;98278;-73
2023/07/22 04:35:39;;;;;;;9.70;3.35;;;;;;;19.27;65.03;100875.28;4908960;28;99122;-72
2023/07/22 04:38:05;;;;;;;3.72;2.58;;;;;;;19.27;65.40;100886.00;4911940;28;96874;-72
2023/07/22 04:40:32;;;;;;;4.05;3.13;;;;;;;19.23;65.15;100879.13;4912982;28;96825;-72
2023/07/22 04:42:58;;;;;;;5.90;2.70;;;;;;;19.26;64.91;100883.44;4906499;28;99375;-73
2023/07/22 04:45:25;;;;;;;5.07;3.05;;;;;;;19.27;65.25;100885.16;4912891;28;99684;-72
2023/07/22 04:47:53;;;;;;;3.42;2.72;;;;;;;19.43;64.70;100897.34;4910273;28;96763;-73
2023/07/22 04:50:19;;;;;;;4.70;2.85;;;;;;;19.45;64.72;100886.53;4912807;28;96952;-72
2023/07/22 04:52:47;;;;;;;5.40;2.85;;;;;;;19.46;64.68;100891.84;4908647;28;99291;-72
2023/07/22 04:55:14;;;;;;;9.25;3.03;;;;;;;19.37;64.63;100889.75;4912549;28;98843;-73
2023/07/22 04:57:42;;;;;;;8.60;3.08;;;;;;;19.31;64.87;100895.53;4908725;28;98623;-72
2023/07/22 05:00:13;;;;;;;3.75;2.83;;;;;;;19.48;64.62;100892.59;4912181;28;98005;-72
2023/07/22 05:02:39;;;;;;;3.85;3.17;;;;;;;19.59;63.69;100891.81;4903292;28;97912;-72
2023/07/22 05:05:09;;;;;;;4.72;3.25;;;;;;;19.40;64.26;100902.94;4911054;28;98834;-71
2023/07/22 05:07:36;;;;;;;6.10;3.10;;;;;;;19.57;64.00;100900.91;4901537;28;96866;-72
2023/07/22 05:10:02;;;;;;;7.22;3.80;;;;;;;19.48;63.97;100906.00;4910618;28;96831;-73
2023/07/22 05:12:29;;;;;;;4.93;3.45;;;;;;;19.79;63.14;100909.19;4906618;28;99415;-72
2023/07/22 05:14:56;;;;;;;7.38;4.38;;;;;;;19.59;63.48;100904.38;4911418;28;97922;-73
2023/07/22 05:17:22;;;;;;;4.75;3.55;;;;;;;19.71;63.78;100907.03;4911605;28;96901;-72
2023/07/22 05:19:49;;;;;;;5.00;4.00;;;;;;;20.37;61.53;100904.97;4912299;28;96873;-72
2023/07/22 05:22:17;;;;;;;5.95;3.72;;;;;;;20.72;59.88;100905.91;4909689;28;98868;-73
2023/07/22 05:24:43;;;;;;;9.38;3.97;;;;;;;20.55;60.19;100906.28;4911844;28;99220;-72
2023/07/22 05:27:10;;;;;;;8.02;3.80;;;;;;;20.62;59.80;100923.66;4908842;28;96732;-72
2023/07/22 05:29:36;;;;;;;6.38;4.07;;;;;;;20.69;59.29;100915.03;4910684;28;96852;-72
2023/07/22 05:32:02;;;;;;;5.80;4.43;;;;;;;20.58;59.52;100923.06;4910321;28;99295;-72
2023/07/22 05:34:29;;;;;;;9.52;4.82;;;;;;;20.71;59.59;100919.44;4910868;28;98806;-73
2023/07/22 05:36:55;;;;;;;5.88;4.15;;;;;;;20.76;59.66;100917.25;4909026;28;96908;-72
2023/07/22 05:39:23;;;;;;;8.35;4.70;;;;;;;20.65;59.78;100927.00;4911159;28;97337;-72
2023/07/22 05:41:49;;;;;;;8.27;4.60;;;;;;;20.10;61.19;100924.78;4908758;28;97938;-73
2023/07/22 05:44:16;;;;;;;7.25;4.68;;;;;;;20.05;62.24;100940.34;4905717;28;98751;-74
2023/07/22 05:46:43;;;;;;;10.55;5.90;;;;;;;19.87;62.08;100939.84;4906394;28;98331;-73
2023/07/22 05:49:10;;;;;;;7.10;4.85;;;;;;;19.77;63.24;100938.78;4906393;28;96943;-72
2023/07/22 05:51:37;;;;;;;7.53;5.47;;;;;;;19.50;63.93;100941.56;4905960;28;99505;-74
2023/07/22 05:54:04;;;;;;;9.18;5.60;;;;;;;20.21;62.21;100942.81;4906810;28;100613;-73
2023/07/22 05:56:32;;;;;;;9.02;5.47;;;;;;;19.63;63.68;100943.38;4909995;28;97020;-73
2023/07/22 05:58:58;;;;;;;8.00;5.30;;;;;;;20.08;61.92;100945.50;4911151;28;96857;-74
2023/07/22 06:01:25;;;;;;;6.85;5.60;;;;;;;20.31;60.32;100941.16;4912049;28;99373;-73
2023/07/22 06:03:51;;;;;;;8.88;6.28;;;;;;;20.57;59.76;100944.63;4910059;28;98942;-72
2023/07/22 06:06:18;;;;;;;10.05;6.38;;;;;;;20.71;59.75;100947.16;4904736;28;96676;-73
2023/07/22 06:08:44;;;;;;;10.00;6.00;;;;;;;20.40;60.08;100945.88;4911152;28;96822;-73
2023/07/22 06:11:11;;;;;;;11.77;5.88;;;;;;;20.70;59.36;100937.38;4912028;28;98514;-72
2023/07/22 06:13:38;;;;;;;8.40;5.63;;;;;;;20.59;59.89;100943.56;4909854;28;99263;-73
2023/07/22 06:16:05;;;;;;;7.50;5.28;;;;;;;20.63;59.70;100944.19;4910934;28;96823;-73
2023/07/22 06:18:31;;;;;;;9.85;6.28;;;;;;;20.78;59.28;100948.41;4907432;28;97667;-73
2023/07/22 06:20:58;;;;;;;11.27;5.35;;;;;;;20.55;59.13;100946.56;4908855;28;99206;-73
2023/07/22 06:23:24;;;;;;;9.90;5.82;;;;;;;20.49;59.29;100942.50;4908345;28;97509;-73
2023/07/22 06:25:51;;;;;;;8.55;5.18;;;;;;;21.12;57.83;100957.47;4909729;28;96852;-73
2023/07/22 06:28:18;;;;;;;9.18;5.88;;;;;;;21.23;57.23;100951.31;4905671;28;96961;-73
2023/07/22 06:30:45;;;;;;;8.38;5.25;;;;;;;21.76;55.32;100958.75;4909055;28;102222;-73
2023/07/22 06:33:12;;;;;;;8.63;5.43;;;;;;;21.70;54.46;100961.94;4905119;28;98814;-73
2023/07/22 06:35:38;;;;;;;14.68;5.10;;;;;;;21.32;54.94;100964.91;4907880;28;97022;-73
2023/07/22 06:38:05;;;;;;;12.05;5.40;;;;;;;21.60;54.28;100960.91;4903534;28;96821;-73
2023/07/22 06:40:31;;;;;;;8.43;5.15;;;;;;;21.70;53.83;100961.06;4909581;28;98032;-75
2023/07/22 06:42:58;;;;;;;10.82;5.63;;;;;;;21.66;54.65;100971.19;4910086;28;99348;-74
2023/07/22 06:45:24;;;;;;;8.60;5.05;;;;;;;22.22;53.23;100971.28;4911372;28;100827;-73
2023/07/22 06:47:52;;;;;;;9.45;5.03;;;;;;;21.90;53.95;100965.75;4909510;28;96915;-73
2023/07/22 06:50:19;;;;;;;9.40;4.95;;;;;;;21.46;55.20;100963.84;4910776;28;100987;-74
2023/07/22 06:52:46;;;;;;;9.50;4.88;;;;;;;21.55;55.06;100968.50;4905648;28;102417;-72
2023/07/22 06:55:12;;;;;;;5.72;4.10;;;;;;;21.59;53.43;100966.44;4910654;28;97001;-73
2023/07/22 06:57:38;;;;;;;6.50;4.03;;;;;;;21.80;53.12;100970.97;4908777;28;96947;-72
2023/07/22 07:00:06;;;;;;;6.97;3.97;;;;;;;22.08;51.95;100958.91;4908441;28;98870;-72
2023/07/22 07:02:33;;;;;;;7.30;4.03;;;;;;;22.49;50.78;100963.66;4904153;28;99120;-73
2023/07/22 07:05:01;;;;;;;7.78;3.72;;;;;;;22.60;50.67;100968.16;4907712;28;96986;-74
2023/07/22 07:07:27;;;;;;;6.35;3.58;;;;;;;22.91;49.82;100970.03;4906247;28;97558;-74
2023/07/22 07:09:54;;;;;;;10.18;3.17;;;;;;;22.23;49.46;100973.84;4907358;28;99352;-73
2023/07/22 07:12:20;;;;;;;4.88;3.08;;;;;;;21.67;51.40;100972.91;4908777;28;97799;-74
2023/07/22 07:14:47;;;;;;;7.30;3.25;;;;;;;21.81;50.93;100974.53;4905427;28;100253;-73
2023/07/22 07:17:13;;;;;;;6.60;3.28;;;;;;;22.41;49.08;100971.50;4902249;28;97412;-73
2023/07/22 07:19:40;;;;;;;6.40;3.22;;;;;;;22.57;48.54;100980.03;4903402;28;99355;-72
2023/07/22 07:22:08;;;;;;;7.18;3.67;;;;;;;22.88;47.46;100969.47;4909840;28;99008;-73
2023/07/22 07:24:34;;;;;;;5.13;3.42;;;;;;;22.90;46.92;100970.19;4910121;28;96822;-74
2023/07/22 07:27:01;;;;;;;6.05;3.70;;;;;;;22.34;48.64;100981.03;4909540;28;96883;-74
2023/07/22 07:29:27;;;;;;;7.18;3.88;;;;;;;22.38;48.78;100981.66;4909363;28;99002;-74
2023/07/22 07:31:54;;;;;;;8.40;3.92;;;;;;;22.82;47.52;100973.53;4909081;28;97552;-73
2023/07/22 07:34:20;;;;;;;10.23;3.95;;;;;;;22.63;47.17;100979.53;4909805;28;96687;-73
2023/07/22 07:36:48;;;;;;;10.32;4.03;;;;;;;22.74;46.79;100984.06;4907385;28;100416;-73
2023/07/22 07:39:17;;;;;;;8.75;4.15;;;;;;;22.94;46.82;100991.34;4907062;28;102402;-73
2023/07/22 07:41:43;;;;;;;5.53;3.85;;;;;;;22.72;46.92;100985.13;4909675;28;99428;-72
2023/07/22 07:44:09;;;;;;;4.78;3.40;;;;;;;22.77;46.63;100993.75;4906029;28;97106;-73
2023/07/22 07:46:36;;;;;;;6.82;3.60;;;;;;;23.19;46.58;100987.44;4909144;28;97033;-73
2023/07/22 07:49:03;;;;;;;7.03;3.63;;;;;;;23.37;45.46;100985.88;4905781;28;98949;-75
2023/07/22 07:51:31;;;;;;;5.80;4.10;;;;;;;23.26;45.31;100995.88;4907626;28;98683;-73
2023/07/22 07:53:59;;;;;;;7.65;3.60;;;;;;;23.63;44.26;101005.25;4902500;28;98540;-73
2023/07/22 07:56:29;;;;;;;9.45;3.78;;;;;;;23.88;43.99;101000.47;4902142;28;96790;-73
2023/07/22 07:58:55;;;;;;;6.65;3.97;;;;;;;23.67;43.46;100995.06;4909194;28;98954;-74
2023/07/22 08:01:22;;;;;;;8.50;3.80;;;;;;;23.82;43.47;101005.41;4908108;28;98151;-74
2023/07/22 08:03:49;;;;;;;12.32;3.53;;;;;;;23.91;42.50;100998.34;4906727;28;97722;-75
2023/07/22 08:06:15;;;;;;;6.88;4.00;;;;;;;23.50;43.75;101003.78;4911804;28;97351;-72
2023/07/22 08:08:42;;;;;;;8.20;3.67;;;;;;;23.04;43.95;100999.50;4912822;28;99145;-74
2023/07/22 08:11:09;;;;;;;8.63;3.92;;;;;;;22.96;44.49;101000.19;4909579;28;97874;-73
2023/07/22 08:13:38;;;;;;;5.43;3.90;;;;;;;23.00;43.35;100995.38;4911850;28;96965;-73
2023/07/22 08:16:06;;;;;;;8.43;3.42;;;;;;;23.08;43.43;100998.28;4913172;28;96869;-72
2023/07/22 08:18:32;;;;;;;5.55;3.70;;;;;;;22.79;44.32;101013.31;4911309;28;101484;-74
2023/07/22 08:20:59;;;;;;;6.93;4.38;;;;;;;22.93;44.22;101007.63;4912195;28;99064;-73
2023/07/22 08:23:26;;;;;;;11.57;4.05;;;;;;;23.51;42.77;101005.47;4912890;28;96730;-72
2023/07/22 08:25:52;;;;;;;5.53;3.40;;;;;;;23.71;42.77;101007.31;4911435;28;97319;-73
2023/07/22 08:28:18;;;;;;;6.07;3.65;;;;;;;23.76;42.54;101014.00;4912611;28;99200;-73
2023/07/22 08:30:48;;;;;;;6.55;3.92;;;;;;;24.04;42.03;101007.06;4908415;28;98868;-72
2023/07/22 08:33:15;;;;;;;6.80;4.35;;;;;;;23.55;42.77;101017.72;4907628;28;96883;-73
2023/07/22 08:35:42;;;;;;;5.80;3.60;;;;;;;23.17;43.71;101010.16;4909174;28;96938;-73
2023/07/22 08:38:09;;;;;;;7.43;4.40;;;;;;;23.24;42.97;101017.56;4908820;28;98939;-74
2023/07/22 08:40:36;;;;;;;5.50;3.65;;;;;;;23.36;42.53;101019.25;4907910;28;99360;-74
2023/07/22 08:43:04;;;;;;;4.97;3.30;;;;;;;23.70;41.11;101021.78;4908689;28;97321;-73
2023/07/22 08:45:34;;;;;;;8.27;3.60;;;;;;;23.48;41.22;101024.63;4905557;28;97076;-73
2023/07/22 08:48:04;;;;;;;5.97;3.70;;;;;;;22.90;43.23;101019.56;4907053;28;99079;-73
2023/07/22 08:50:34;;;;;;;7.47;3.53;;;;;;;23.30;42.67;101018.91;4908145;28;99071;-73
2023/07/22 08:53:02;;;;;;;8.77;3.42;;;;;;;23.02;43.38;101031.16;4912047;28;96781;-73
2023/07/22 08:55:28;;;;;;;5.82;3.70;;;;;;;23.41;42.63;101032.34;4912191;28;97639;-74
2023/07/22 08:57:56;;;;;;;7.20;3.78;;;;;;;23.95;41.30;101034.03;4910106;28;98987;-73
2023/07/22 09:00:23;;;;;;;5.90;3.47;;;;;;;24.22;40.07;101037.88;4912290;28;98840;-73
2023/07/22 09:02:51;;;;;;;5.78;3.63;;;;;;;24.17;40.43;101036.53;4914210;28;96856;-73
2023/07/22 09:05:19;;;;;;;8.13;4.20;;;;;;;23.69;41.11;101037.13;4908438;28;96880;-65
2023/07/22 09:07:48;;;;;;;9.85;3.78;;;;;;;24.02;40.93;101036.06;4910904;28;100055;-64
2023/07/22 09:10:15;;;;;;;6.65;3.53;;;;;;;23.97;40.53;101038.28;4907935;28;97526;-65
2023/07/22 09:12:42;;;;;;;7.47;3.72;;;;;;;24.18;39.87;101038.25;4907392;28;97130;-64
2023/07/22 09:15:11;;;;;;;6.65;3.78;;;;;;;23.74;40.33;101034.03;4911319;28;96933;-65
2023/07/22 09:17:38;;;;;;;6.13;3.58;;;;;;;23.41;40.47;101033.19;4909004;28;99017;-65
2023/07/22 09:20:06;;;;;;;5.85;3.45;;;;;;;23.61;40.06;101036.06;4910448;28;100819;-65
2023/07/22 09:22:35;;;;;;;6.72;3.70;;;;;;;23.96;40.22;101033.88;4906065;28;97116;-65
2023/07/22 09:25:14;;;;;;;4.00;3.63;;;;;;;23.58;40.23;101044.41;4910540;28;99324;-65
2023/07/22 09:27:41;;;;;;;5.88;3.30;;;;;;;24.03;39.41;101026.94;4905112;28;99433;-63
2023/07/22 09:30:21;;;;;;;4.50;3.60;;;;;;;24.38;38.86;101023.03;4906363;28;98082;-64
2023/07/22 09:32:48;;;;;;;8.18;3.45;;;;;;;24.42;38.85;101030.72;4911698;28;97225;-64
2023/07/22 09:35:14;;;;;;;7.25;3.28;;;;;;;24.41;38.11;101029.03;4910751;28;97049;-64
2023/07/22 09:37:42;;;;;;;4.28;3.40;;;;;;;24.92;38.14;101034.31;4912261;28;98183;-64
2023/07/22 09:40:19;;;;;;;3.42;2.85;;;;;;;24.78;37.47;101026.56;4910341;28;98836;-64
2023/07/22 09:42:47;;;;;;;4.22;3.00;;;;;;;24.92;37.23;101028.06;4905563;28;97357;-65
2023/07/22 09:45:14;;;;;;;4.50;3.03;;;;;;;25.21;36.33;101028.91;4911681;28;96919;-64
2023/07/22 09:47:45;;;;;;;5.55;3.17;;;;;;;25.13;36.35;101022.53;4908284;28;99908;-64
2023/07/22 09:50:12;;;;;;;4.13;2.95;;;;;;;25.11;36.97;101021.81;4908569;28;99083;-64
2023/07/22 09:52:46;;;;;;;5.65;2.80;;;;;;;25.51;36.46;101030.66;4908982;28;97309;-65
2023/07/22 09:55:13;;;;;;;3.20;2.38;;;;;;;25.00;36.80;101026.38;4907068;28;97713;-65
2023/07/22 09:57:45;;;;;;;3.45;2.45;;;;;;;25.30;36.25;101035.34;4905120;28;97830;-65
2023/07/22 10:00:14;;;;;;;5.10;3.60;;;;;;;24.97;36.54;101025.78;4908851;28;97622;-65
2023/07/22 10:02:41;;;;;;;7.95;3.05;;;;;;;25.00;36.21;101025.50;4906489;28;96859;-65
2023/07/22 10:05:12;;;;;;;6.93;2.50;;;;;;;24.41;36.92;101025.47;4907418;28;96848;-64
2023/07/22 10:07:41;;;;;;;4.63;2.65;;;;;;;24.56;37.35;101043.00;4908863;28;98878;-65
2023/07/22 10:10:10;;;;;;;6.32;2.65;;;;;;;24.41;37.51;101044.38;4906111;28;99293;-67
2023/07/22 10:12:37;;;;;;;8.07;2.90;;;;;;;24.57;37.25;101040.16;4903978;28;96698;-64
2023/07/22 10:15:06;;;;;;;3.25;2.70;;;;;;;24.99;36.23;101040.03;4911511;28;96789;-64
2023/07/22 10:17:32;;;;;;;5.35;3.20;;;;;;;24.98;35.59;101031.06;4911006;28;99487;-64
2023/07/22 10:19:59;;;;;;;5.32;2.65;;;;;;;25.19;35.35;101030.94;4907365;28;97497;-64
2023/07/22 10:22:28;;;;;;;3.03;2.30;;;;;;;25.24;34.83;101034.06;4908291;28;96868;-65
2023/07/22 10:24:55;;;;;;;3.78;2.53;;;;;;;25.45;34.35;101042.03;4899571;28;96996;-64
2023/07/22 10:27:24;;;;;;;3.63;2.20;;;;;;;25.40;34.11;101031.63;4910975;28;99900;-64
2023/07/22 10:29:50;;;;;;;5.97;2.78;;;;;;;25.57;34.26;101043.63;4907721;28;98887;-63
2023/07/22 10:32:19;;;;;;;3.97;2.55;;;;;;;25.33;33.89;101037.78;4910566;28;96662;-64
2023/07/22 10:34:45;;;;;;;2.80;2.25;;;;;;;25.46;33.19;101032.94;4910480;28;96885;-64
2023/07/22 10:37:11;;;;;;;5.20;2.92;;;;;;;25.04;34.21;101029.63;4908953;28;99087;-64
2023/07/22 10:39:38;;;;;;;5.05;2.58;;;;;;;24.81;34.72;101037.09;4906772;28;100152;-64
2023/07/22 10:42:06;;;;;;;4.10;2.85;;;;;;;25.04;35.07;101034.19;4909159;28;96943;-65
2023/07/22 10:44:42;;;;;;;5.63;3.00;;;;;;;24.93;34.38;101035.19;5078634;27;96558;-65
2023/07/22 10:47:09;;;;;;;3.70;2.90;;;;;;;24.88;33.87;101035.53;5081291;27;96865;-65
2023/07/22 10:49:45;;;;;;;5.43;3.30;;;;;;;24.74;34.30;101038.66;5075098;27;99169;-65
2023/07/22 10:52:13;;;;;;;4.05;2.78;;;;;;;24.42;33.95;101029.84;5068735;27;97870;-65
2023/07/22 10:54:39;;;;;;;3.80;2.80;;;;;;;24.21;35.46;101038.91;5071911;27;96753;-65
2023/07/22 10:57:25;;;;;;;3.92;2.92;;;;;;;24.89;34.50;101036.41;5083838;27;97346;-65
2023/07/22 10:59:53;;;;;;;4.60;3.10;;;;;;;24.68;33.78;101036.47;5074168;27;99222;-64
2023/07/22 11:02:27;;;;;;;4.60;3.13;;;;;;;24.76;33.49;101033.09;5080087;27;99025;-65
2023/07/22 11:04:56;;;;;;;3.78;3.40;;;;;;;25.21;33.03;101028.91;5079641;27;96750;-64
2023/07/22 11:07:43;;;;;;;4.53;3.38;;;;;;;25.42;32.57;101031.50;5087079;27;96871;-65
2023/07/22 11:10:16;;;;;;;7.68;2.90;;;;;;;25.29;33.02;101030.94;5072334;27;99733;-65
2023/07/22 11:12:44;;;;;;;4.28;2.97;;;;;;;24.96;34.00;101040.28;5078751;27;99375;-64
2023/07/22 11:15:15;;;;;;;10.35;3.78;;;;;;;24.94;34.09;101032.31;5081936;27;96983;-64
2023/07/22 11:17:42;;;;;;;6.85;3.85;;;;;;;25.10;33.44;101023.66;5077965;27;96989;-64
2023/07/22 11:20:09;;;;;;;3.67;3.33;;;;;;;25.19;33.47;101028.22;5078328;27;98955;-64
2023/07/22 11:22:35;;;;;;;5.72;3.90;;;;;;;25.25;33.59;101019.56;5071561;27;99230;-64
2023/07/22 11:25:03;;;;;;;6.05;4.05;;;;;;;25.37;33.22;101023.81;5082899;27;96777;-65